createdAt,value
2023-01-18T00:01:21.225Z,96226.67
2023-01-18T00:03:48.392Z,96224.19
2023-01-18T00:06:17.272Z,96219.84
2023-01-18T00:08:44.431Z,96228.28
2023-01-18T00:11:15.355Z,96223.42
2023-01-18T00:13:43.477Z,96222.15
2023-01-18T00:16:16.259Z,96220.69
2023-01-18T00:18:44.212Z,96222.30
2023-01-18T00:21:11.982Z,96216.07
2023-01-18T00:23:39.334Z,96217.59
2023-01-18T00:26:09.568Z,96224.88
2023-01-18T00:28:37.636Z,96225.04
2023-01-18T00:31:20.950Z,96222.14
2023-01-18T00:33:49.972Z,96229.92
2023-01-18T00:36:18.141Z,96232.19
2023-01-18T00:38:51.022Z,96229.04
2023-01-18T00:41:18.690Z,96235.52
2023-01-18T00:43:45.947Z,96239.70
2023-01-18T00:46:19.409Z,96241.92
2023-01-18T00:48:47.829Z,96239.98
2023-01-18T00:51:20.456Z,96247.16
2023-01-18T00:53:47.978Z,96250.23
2023-01-18T00:56:18.519Z,96248.57
2023-01-18T00:58:45.867Z,96250.95
2023-01-18T01:01:14.317Z,96248.73
2023-01-18T01:04:00.341Z,96252.14
2023-01-18T01:06:46.006Z,96250.88
2023-01-18T01:09:29.033Z,96245.95
2023-01-18T01:12:16.875Z,96245.06
2023-01-18T01:15:05.402Z,96240.31
2023-01-18T01:17:54.674Z,96234.71
2023-01-18T01:20:42.806Z,96230.84
2023-01-18T01:23:33.793Z,96232.47
2023-01-18T01:26:08.184Z,96232.02
2023-01-18T01:28:45.504Z,96229.85
2023-01-18T01:31:14.919Z,96232.30
2023-01-18T01:33:42.371Z,96225.45
2023-01-18T01:36:14.988Z,96233.86
2023-01-18T01:38:42.219Z,96239.77
2023-01-18T01:41:15.940Z,96231.71
2023-01-18T01:43:44.632Z,96235.73
2023-01-18T01:46:18.003Z,96229.09
2023-01-18T01:48:47.050Z,96232.02
2023-01-18T01:51:19.272Z,96230.01
2023-01-18T01:53:49.492Z,96229.03
2023-01-18T01:56:19.634Z,96218.52
2023-01-18T01:58:51.340Z,96213.86
2023-01-18T02:01:18.502Z,96216.08
2023-01-18T02:03:45.893Z,96214.17
2023-01-18T02:06:30.964Z,96212.28
2023-01-18T02:09:04.039Z,96207.83
2023-01-18T02:11:31.305Z,96213.55
2023-01-18T02:14:03.686Z,96209.23
2023-01-18T02:16:40.182Z,96210.77
2023-01-18T02:19:13.441Z,96210.41
2023-01-18T02:21:46.004Z,96213.19
2023-01-18T02:24:25.357Z,96216.05
2023-01-18T02:27:05.588Z,96217.07
2023-01-18T02:29:32.570Z,96212.91
2023-01-18T02:32:14.140Z,96222.51
2023-01-18T02:35:08.932Z,96226.79
2023-01-18T02:37:54.504Z,96232.89
2023-01-18T02:40:39.260Z,96228.86
2023-01-18T02:43:28.740Z,96224.58
2023-01-18T02:46:17.213Z,96216.38
2023-01-18T02:48:45.832Z,96207.47
2023-01-18T02:51:12.910Z,96213.38
2023-01-18T02:53:43.988Z,96220.50
2023-01-18T02:56:17.963Z,96217.04
2023-01-18T02:58:51.606Z,96209.89
2023-01-18T03:01:25.763Z,96208.70
2023-01-18T03:03:58.803Z,96214.86
2023-01-18T03:06:29.613Z,96209.23
2023-01-18T03:08:59.021Z,96205.98
2023-01-18T03:11:38.357Z,96205.03
2023-01-18T03:14:36.821Z,96202.09
2023-01-18T03:17:12.275Z,96206.14
2023-01-18T03:20:09.431Z,96204.55
2023-01-18T03:23:07.779Z,96205.22
2023-01-18T03:25:48.009Z,96204.73
2023-01-18T03:28:41.990Z,96205.71
2023-01-18T03:31:36.575Z,96202.66
2023-01-18T03:34:17.234Z,96197.11
2023-01-18T03:36:51.864Z,96194.85
2023-01-18T03:39:44.632Z,96192.45
2023-01-18T03:42:22.024Z,96190.59
2023-01-18T03:45:02.651Z,96188.86
2023-01-18T03:47:30.422Z,96199.53
2023-01-18T03:49:58.094Z,96197.34
2023-01-18T03:52:28.214Z,96196.79
2023-01-18T03:55:17.272Z,96196.39
2023-01-18T03:57:50.373Z,96199.17
2023-01-18T04:00:18.343Z,96207.77
2023-01-18T04:02:48.320Z,96205.45
2023-01-18T04:05:16.847Z,96207.79
2023-01-18T04:07:44.407Z,96205.57
2023-01-18T04:10:11.866Z,96187.77
2023-01-18T04:12:39.328Z,96174.89
2023-01-18T04:15:06.897Z,96191.29
2023-01-18T04:17:34.175Z,96201.33
2023-01-18T04:20:01.529Z,96200.63
2023-01-18T04:22:28.773Z,96204.61
2023-01-18T04:24:55.986Z,96206.48
2023-01-18T04:27:24.823Z,96207.09
2023-01-18T04:29:52.407Z,96205.58
2023-01-18T04:32:19.745Z,96209.65
2023-01-18T04:34:47.005Z,96205.23
2023-01-18T04:37:14.363Z,96213.30
2023-01-18T04:39:41.524Z,96217.18
2023-01-18T04:42:08.680Z,96211.52
2023-01-18T04:44:36.546Z,96201.08
2023-01-18T04:47:03.917Z,96205.12
2023-01-18T04:49:31.060Z,96208.89
2023-01-18T04:51:58.320Z,96209.91
2023-01-18T04:54:25.990Z,96207.15
2023-01-18T04:56:53.141Z,96210.74
2023-01-18T04:59:20.091Z,96196.40
2023-01-18T05:01:47.595Z,96198.20
2023-01-18T05:04:15.127Z,96209.24
2023-01-18T05:06:42.481Z,96214.33
2023-01-18T05:09:12.195Z,96222.60
2023-01-18T05:11:39.249Z,96222.34
2023-01-18T05:14:06.420Z,96225.38
2023-01-18T05:16:33.596Z,96228.52
2023-01-18T05:19:00.919Z,96230.52
2023-01-18T05:21:28.276Z,96232.43
2023-01-18T05:23:55.440Z,96234.58
2023-01-18T05:26:23.872Z,96236.77
2023-01-18T05:28:56.809Z,96230.49
2023-01-18T05:31:24.817Z,96230.74
2023-01-18T05:33:52.854Z,96237.22
2023-01-18T05:36:20.128Z,96248.11
2023-01-18T05:38:47.473Z,96248.66
2023-01-18T05:41:14.936Z,96241.86
2023-01-18T05:43:42.705Z,96229.23
2023-01-18T05:46:10.042Z,96225.01
2023-01-18T05:48:37.324Z,96226.02
2023-01-18T05:51:09.882Z,96226.98
2023-01-18T05:53:37.674Z,96206.27
2023-01-18T05:56:06.884Z,96193.40
2023-01-18T05:58:34.955Z,96184.83
2023-01-18T06:01:02.360Z,96186.30
2023-01-18T06:03:29.881Z,96187.57
2023-01-18T06:05:58.675Z,96184.40
2023-01-18T06:08:26.338Z,96187.13
2023-01-18T06:10:55.331Z,96190.29
2023-01-18T06:13:24.536Z,96189.10
2023-01-18T06:15:54.051Z,96196.70
2023-01-18T06:18:22.655Z,96191.67
2023-01-18T06:20:54.295Z,96184.77
2023-01-18T06:23:21.393Z,96191.63
2023-01-18T06:25:48.605Z,96200.20
2023-01-18T06:28:16.414Z,96205.64
2023-01-18T06:30:44.555Z,96215.59
2023-01-18T06:33:13.415Z,96212.02
2023-01-18T06:35:41.215Z,96218.18
2023-01-18T06:38:09.052Z,96217.15
2023-01-18T06:40:37.376Z,96214.15
2023-01-18T06:43:05.035Z,96222.02
2023-01-18T06:45:33.450Z,96224.43
2023-01-18T06:48:00.659Z,96229.97
2023-01-18T06:50:27.888Z,96228.48
2023-01-18T06:52:55.430Z,96224.79
2023-01-18T06:55:23.003Z,96234.11
2023-01-18T06:57:50.327Z,96235.13
2023-01-18T07:00:20.524Z,96232.19
2023-01-18T07:02:48.054Z,96230.89
2023-01-18T07:05:15.293Z,96231.68
2023-01-18T07:07:42.569Z,96226.52
2023-01-18T07:10:10.346Z,96223.18
2023-01-18T07:12:37.372Z,96221.71
2023-01-18T07:15:20.547Z,96212.89
2023-01-18T07:17:49.794Z,96211.74
2023-01-18T07:20:17.205Z,96208.84
2023-01-18T07:22:44.462Z,96210.25
2023-01-18T07:25:12.806Z,96212.76
2023-01-18T07:27:43.153Z,96216.60
2023-01-18T07:30:11.921Z,96216.39
2023-01-18T07:32:39.710Z,96216.62
2023-01-18T07:35:06.983Z,96217.02
2023-01-18T07:37:35.542Z,96220.77
2023-01-18T07:40:03.395Z,96222.13
2023-01-18T07:42:31.448Z,96220.61
2023-01-18T07:44:59.228Z,96225.86
2023-01-18T07:47:27.638Z,96226.51
2023-01-18T07:49:54.875Z,96233.90
2023-01-18T07:52:22.141Z,96239.98
2023-01-18T07:54:49.977Z,96251.17
2023-01-18T07:57:17.877Z,96255.80
2023-01-18T07:59:44.928Z,96260.30
2023-01-18T08:02:14.062Z,96262.61
2023-01-18T08:04:41.517Z,96264.80
2023-01-18T08:07:08.960Z,96275.44
2023-01-18T08:09:36.265Z,96275.80
2023-01-18T08:12:03.726Z,96268.27
2023-01-18T08:14:30.928Z,96268.66
2023-01-18T08:16:58.188Z,96268.59
2023-01-18T08:19:26.159Z,96272.42
2023-01-18T08:21:53.325Z,96284.52
2023-01-18T08:24:20.380Z,96278.20
2023-01-18T08:26:47.689Z,96278.60
2023-01-18T08:29:14.887Z,96281.27
2023-01-18T08:31:41.991Z,96285.77
2023-01-18T08:34:09.406Z,96295.80
2023-01-18T08:36:36.966Z,96294.01
2023-01-18T08:39:05.099Z,96288.04
2023-01-18T08:41:32.100Z,96287.27
2023-01-18T08:43:59.892Z,96293.17
2023-01-18T08:46:28.166Z,96296.87
2023-01-18T08:48:58.584Z,96295.75
2023-01-18T08:51:25.824Z,96296.50
2023-01-18T08:53:56.607Z,96289.94
2023-01-18T08:56:24.815Z,96296.89
2023-01-18T08:58:52.211Z,96291.86
2023-01-18T09:01:22.544Z,96307.57
2023-01-18T09:03:50.136Z,96315.05
2023-01-18T09:06:17.980Z,96322.56
2023-01-18T09:08:47.713Z,96324.66
2023-01-18T09:11:15.974Z,96316.03
2023-01-18T09:13:59.349Z,96315.07
2023-01-18T09:16:29.060Z,96318.29
2023-01-18T09:18:57.042Z,96319.63
2023-01-18T09:21:24.247Z,96322.17
2023-01-18T09:23:51.704Z,96334.33
2023-01-18T09:26:20.644Z,96331.45
2023-01-18T09:28:52.617Z,96329.54
2023-01-18T09:31:21.958Z,96330.95
2023-01-18T09:33:53.737Z,96337.40
2023-01-18T09:36:25.821Z,96340.79
2023-01-18T09:38:54.591Z,96349.01
2023-01-18T09:41:35.764Z,96357.07
2023-01-18T09:44:10.160Z,96344.91
2023-01-18T09:46:40.428Z,96340.65
2023-01-18T09:49:16.372Z,96326.06
2023-01-18T09:52:08.295Z,96328.82
2023-01-18T09:54:40.876Z,96338.52
2023-01-18T09:57:33.514Z,96339.94
2023-01-18T10:00:01.073Z,96352.55
2023-01-18T10:02:41.399Z,96357.39
2023-01-18T10:05:34.690Z,96354.45
2023-01-18T10:08:25.063Z,96349.65
2023-01-18T10:11:03.878Z,96339.84
2023-01-18T10:13:37.700Z,96332.70
2023-01-18T10:16:15.145Z,96331.23
2023-01-18T10:18:46.857Z,96320.20
2023-01-18T10:21:48.448Z,96313.77
2023-01-18T10:24:51.364Z,96300.70
2023-01-18T10:27:40.415Z,96283.29
2023-01-18T10:30:29.263Z,96280.96
2023-01-18T10:32:59.858Z,96277.86
2023-01-18T10:35:40.566Z,96285.77
2023-01-18T10:38:15.373Z,96291.36
2023-01-18T10:40:47.167Z,96277.45
2023-01-18T10:43:16.970Z,96281.17
2023-01-18T10:45:44.234Z,96289.45
2023-01-18T10:48:17.409Z,96295.11
2023-01-18T10:50:53.369Z,96326.81
2023-01-18T10:53:24.426Z,96354.44
2023-01-18T10:56:02.232Z,96380.13
2023-01-18T10:58:43.610Z,96415.94
2023-01-18T11:01:19.709Z,96550.36
2023-01-18T11:03:50.190Z,96557.85
2023-01-18T11:06:20.125Z,96575.07
2023-01-18T11:08:49.214Z,96577.52
2023-01-18T11:11:50.147Z,96590.37
2023-01-18T11:14:26.541Z,96598.71
2023-01-18T11:17:11.065Z,96593.69
2023-01-18T11:19:41.177Z,96587.64
2023-01-18T11:22:15.394Z,96613.84
2023-01-18T11:24:43.066Z,96636.41
2023-01-18T11:27:21.065Z,96655.65
2023-01-18T11:29:50.103Z,96663.09
2023-01-18T11:32:23.502Z,96675.23
2023-01-18T11:34:56.541Z,96681.79
2023-01-18T11:37:33.920Z,96687.39
2023-01-18T11:40:26.372Z,96690.55
2023-01-18T11:42:59.361Z,96688.61
2023-01-18T11:45:58.566Z,96685.58
2023-01-18T11:48:37.573Z,96671.92
2023-01-18T11:51:27.048Z,96675.11
2023-01-18T11:54:26.128Z,96689.48
2023-01-18T11:56:59.300Z,96686.24
2023-01-18T11:59:30.997Z,96667.74
2023-01-18T12:02:20.064Z,96647.84
2023-01-18T12:05:16.044Z,96638.41
2023-01-18T12:08:18.305Z,96627.52
2023-01-18T12:10:54.968Z,96646.38
2023-01-18T12:13:28.777Z,96652.36
2023-01-18T12:16:04.334Z,96691.66
2023-01-18T12:18:40.795Z,96685.55
2023-01-18T12:21:23.917Z,96694.26
2023-01-18T12:24:18.289Z,96694.70
2023-01-18T12:26:57.563Z,96703.83
2023-01-18T12:29:40.438Z,96708.27
2023-01-18T12:32:17.441Z,96727.85
2023-01-18T12:34:53.246Z,96724.64
2023-01-18T12:37:26.158Z,96721.89
2023-01-18T12:40:12.552Z,96731.89
2023-01-18T12:42:41.855Z,96742.84
2023-01-18T12:45:35.473Z,96746.39
2023-01-18T12:48:25.749Z,96761.42
2023-01-18T12:50:55.923Z,96775.90
2023-01-18T12:53:39.814Z,96786.02
2023-01-18T12:56:15.315Z,96802.16
2023-01-18T12:58:43.610Z,96809.10
2023-01-18T13:01:19.902Z,96819.76
2023-01-18T13:03:53.028Z,96820.16
2023-01-18T13:06:20.715Z,96835.61
2023-01-18T13:08:59.274Z,96846.80
2023-01-18T13:11:29.741Z,96847.13
2023-01-18T13:14:32.891Z,96854.83
2023-01-18T13:17:04.775Z,96863.85
2023-01-18T13:19:43.587Z,96870.41
2023-01-18T13:22:17.119Z,96878.16
2023-01-18T13:25:16.755Z,96894.55
2023-01-18T13:28:01.914Z,96897.33
2023-01-18T13:30:33.234Z,96913.83
2023-01-18T13:33:12.317Z,96916.05
2023-01-18T13:36:09.085Z,96924.04
2023-01-18T13:38:57.034Z,96923.48
2023-01-18T13:41:29.544Z,96924.05
2023-01-18T13:44:03.915Z,96927.02
2023-01-18T13:46:35.920Z,96930.15
2023-01-18T13:49:38.260Z,96932.40
2023-01-18T13:52:34.814Z,96933.35
2023-01-18T13:55:24.657Z,96932.15
2023-01-18T13:57:55.590Z,96933.77
2023-01-18T14:00:25.832Z,96940.13
2023-01-18T14:03:03.204Z,96944.23
2023-01-18T14:05:44.175Z,96943.75
2023-01-18T14:08:23.727Z,96947.20
2023-01-18T14:10:54.249Z,96950.89
2023-01-18T14:13:46.983Z,96963.73
2023-01-18T14:16:30.866Z,96972.29
2023-01-18T14:19:19.084Z,96974.61
2023-01-18T14:22:06.826Z,96980.23
2023-01-18T14:24:38.792Z,96989.41
2023-01-18T14:27:08.990Z,96997.27
2023-01-18T14:29:48.852Z,97001.27
2023-01-18T14:32:32.418Z,97005.58
2023-01-18T14:35:01.651Z,97012.20
2023-01-18T14:37:34.014Z,97024.45
2023-01-18T14:40:27.481Z,97030.17
2023-01-18T14:43:40.501Z,97019.16
2023-01-18T14:46:23.784Z,97012.40
2023-01-18T14:48:55.521Z,97013.62
2023-01-18T14:51:25.000Z,97018.52
2023-01-18T14:53:57.647Z,97030.39
2023-01-18T14:56:27.562Z,97038.00
2023-01-18T14:59:00.509Z,97040.27
2023-01-18T15:01:29.587Z,97046.31
2023-01-18T15:04:00.405Z,97049.70
2023-01-18T15:06:34.842Z,97060.52
2023-01-18T15:09:05.344Z,97067.23
2023-01-18T15:11:35.783Z,97068.98
2023-01-18T15:14:12.321Z,97072.52
2023-01-18T15:16:39.786Z,97072.84
2023-01-18T15:19:23.399Z,97079.21
2023-01-18T15:21:50.980Z,97088.77
2023-01-18T15:24:24.342Z,97092.72
2023-01-18T15:26:54.186Z,97095.72
2023-01-18T15:29:33.626Z,97089.63
2023-01-18T15:32:25.681Z,97093.23
2023-01-18T15:34:55.307Z,97090.83
2023-01-18T15:37:27.236Z,97093.35
2023-01-18T15:40:00.473Z,97098.71
2023-01-18T15:42:30.769Z,97100.28
2023-01-18T15:44:59.770Z,97097.21
2023-01-18T15:47:36.156Z,97098.19
2023-01-18T15:50:16.006Z,97101.80
2023-01-18T15:52:53.477Z,97106.39
2023-01-18T15:55:45.395Z,97107.95
2023-01-18T15:58:23.153Z,97108.80
2023-01-18T16:01:00.030Z,97111.17
2023-01-18T16:03:40.019Z,97114.11
2023-01-18T16:06:12.717Z,97114.09
2023-01-18T16:09:13.414Z,97120.71
2023-01-18T16:11:40.793Z,97127.16
2023-01-18T16:14:27.649Z,97130.88
2023-01-18T16:16:58.235Z,97143.84
2023-01-18T16:19:31.309Z,97158.39
2023-01-18T16:22:02.159Z,97159.56
2023-01-18T16:24:50.661Z,97158.70
2023-01-18T16:27:21.021Z,97162.49
2023-01-18T16:29:54.903Z,97173.08
2023-01-18T16:32:27.409Z,97174.23
2023-01-18T16:34:58.272Z,97179.70
2023-01-18T16:37:26.022Z,97183.70
2023-01-18T16:39:56.398Z,97188.05
2023-01-18T16:42:33.131Z,97192.33
2023-01-18T16:45:13.258Z,97198.29
2023-01-18T16:47:42.483Z,97196.93
2023-01-18T16:50:14.913Z,97195.53
2023-01-18T16:52:42.722Z,97199.75
2023-01-18T16:55:14.330Z,97208.23
2023-01-18T16:57:42.763Z,97211.83
2023-01-18T17:00:17.265Z,97218.10
2023-01-18T17:02:45.653Z,97219.19
2023-01-18T17:05:15.421Z,97226.58
2023-01-18T17:07:43.359Z,97233.89
2023-01-18T17:10:20.308Z,97232.75
2023-01-18T17:12:48.484Z,97233.15
2023-01-18T17:15:15.880Z,97232.34
2023-01-18T17:17:43.368Z,97229.05
2023-01-18T17:20:22.239Z,97227.42
2023-01-18T17:22:53.368Z,97234.14
2023-01-18T17:25:21.439Z,97243.34
2023-01-18T17:27:49.358Z,97247.67
2023-01-18T17:30:21.539Z,97252.02
2023-01-18T17:32:49.741Z,97254.89
2023-01-18T17:35:18.911Z,97262.57
2023-01-18T17:37:46.867Z,97266.69
2023-01-18T17:40:23.397Z,97270.31
2023-01-18T17:42:52.560Z,97268.41
2023-01-18T17:45:19.605Z,97263.14
2023-01-18T17:47:47.075Z,97268.64
2023-01-18T17:50:21.127Z,97270.42
2023-01-18T17:52:48.556Z,97272.56
2023-01-18T17:55:17.873Z,97269.79
2023-01-18T17:57:47.050Z,97265.36
2023-01-18T18:00:15.608Z,97265.10
2023-01-18T18:02:43.327Z,97265.83
2023-01-18T18:05:10.880Z,97268.34
2023-01-18T18:07:38.133Z,97270.52
2023-01-18T18:10:05.900Z,97267.34
2023-01-18T18:12:35.323Z,97269.59
2023-01-18T18:15:04.243Z,97268.62
2023-01-18T18:17:31.936Z,97261.96
2023-01-18T18:20:00.840Z,97258.09
2023-01-18T18:22:29.580Z,97256.25
2023-01-18T18:24:57.742Z,97262.46
2023-01-18T18:27:37.271Z,97258.80
2023-01-18T18:30:12.459Z,97259.38
2023-01-18T18:32:39.859Z,97261.13
2023-01-18T18:35:19.127Z,97255.79
2023-01-18T18:37:50.761Z,97264.45
2023-01-18T18:40:18.750Z,97256.80
2023-01-18T18:42:56.466Z,97253.77
2023-01-18T18:45:27.964Z,97249.59
2023-01-18T18:47:55.859Z,97241.65
2023-01-18T18:50:23.197Z,97238.05
2023-01-18T18:52:50.327Z,97239.41
2023-01-18T18:55:18.520Z,97240.73
2023-01-18T18:57:45.894Z,97242.93
2023-01-18T19:00:13.497Z,97251.88
2023-01-18T19:02:41.012Z,97250.16
2023-01-18T19:05:12.758Z,97256.52
2023-01-18T19:07:41.837Z,97263.53
2023-01-18T19:10:11.044Z,97257.88
2023-01-18T19:12:39.195Z,97247.05
2023-01-18T19:15:06.900Z,97254.39
2023-01-18T19:17:34.059Z,97259.45
2023-01-18T19:20:01.373Z,97258.20
2023-01-18T19:22:28.859Z,97258.77
2023-01-18T19:24:57.175Z,97262.79
2023-01-18T19:27:24.366Z,97267.58
2023-01-18T19:29:52.674Z,97272.27
2023-01-18T19:32:21.356Z,97270.88
2023-01-18T19:34:50.310Z,97270.49
2023-01-18T19:37:17.996Z,97270.58
2023-01-18T19:39:45.797Z,97276.23
2023-01-18T19:42:13.108Z,97264.41
2023-01-18T19:44:40.242Z,97258.48
2023-01-18T19:47:07.653Z,97259.08
2023-01-18T19:49:34.984Z,97259.27
2023-01-18T19:52:02.059Z,97258.17
2023-01-18T19:54:29.196Z,97260.84
2023-01-18T19:56:56.983Z,97261.48
2023-01-18T19:59:24.302Z,97247.94
2023-01-18T20:01:51.974Z,97240.75
2023-01-18T20:04:21.227Z,97232.14
2023-01-18T20:06:48.777Z,97226.05
2023-01-18T20:09:19.799Z,97227.63
2023-01-18T20:11:48.839Z,97227.68
2023-01-18T20:14:17.816Z,97228.21
2023-01-18T20:16:46.233Z,97228.63
2023-01-18T20:19:19.862Z,97229.05
2023-01-18T20:21:47.067Z,97223.58
2023-01-18T20:24:14.530Z,97224.09
2023-01-18T20:26:42.294Z,97224.54
2023-01-18T20:29:10.679Z,97220.80
2023-01-18T20:31:39.374Z,97219.48
2023-01-18T20:34:07.095Z,97218.33
2023-01-18T20:36:35.563Z,97218.58
2023-01-18T20:39:04.340Z,97215.15
2023-01-18T20:41:31.676Z,97229.19
2023-01-18T20:43:59.105Z,97233.13
2023-01-18T20:46:26.302Z,97233.13
2023-01-18T20:48:53.549Z,97234.31
2023-01-18T20:51:21.010Z,97227.19
2023-01-18T20:53:49.315Z,97229.42
2023-01-18T20:56:28.774Z,97227.91
2023-01-18T20:58:57.531Z,97218.34
2023-01-18T21:01:31.121Z,97219.63
2023-01-18T21:04:01.256Z,97213.05
2023-01-18T21:06:28.923Z,97209.79
2023-01-18T21:08:57.975Z,97200.58
2023-01-18T21:11:26.299Z,97197.71
2023-01-18T21:13:54.950Z,97194.44
2023-01-18T21:16:24.076Z,97190.02
2023-01-18T21:18:55.631Z,97196.85
2023-01-18T21:21:23.373Z,97190.31
2023-01-18T21:23:50.402Z,97183.16
2023-01-18T21:26:17.733Z,97188.89
2023-01-18T21:28:45.078Z,97189.85
2023-01-18T21:31:12.647Z,97193.11
2023-01-18T21:33:40.115Z,97193.55
2023-01-18T21:36:12.237Z,97193.59
2023-01-18T21:38:39.607Z,97195.30
2023-01-18T21:41:25.514Z,97187.33
2023-01-18T21:44:12.756Z,97176.14
2023-01-18T21:46:51.315Z,97169.35
2023-01-18T21:50:16.135Z,97178.83
2023-01-18T21:52:44.048Z,97183.23
2023-01-18T21:55:11.082Z,97194.64
2023-01-18T21:57:38.198Z,97194.96
2023-01-18T22:00:09.167Z,97195.46
2023-01-18T22:02:37.062Z,97195.09
2023-01-18T22:05:05.089Z,97193.53
2023-01-18T22:07:34.615Z,97186.85
2023-01-18T22:10:06.822Z,97181.29
2023-01-18T22:12:34.509Z,97171.90
2023-01-18T22:15:02.405Z,97163.60
2023-01-18T22:17:30.266Z,97166.48
2023-01-18T22:19:57.334Z,97168.65
2023-01-18T22:22:24.593Z,97173.45
2023-01-18T22:24:51.919Z,97172.06
2023-01-18T22:27:19.313Z,97176.77
2023-01-18T22:29:46.365Z,97171.84
2023-01-18T22:32:13.523Z,97173.42
2023-01-18T22:34:40.571Z,97171.04
2023-01-18T22:37:07.691Z,97167.76
2023-01-18T22:39:34.682Z,97163.77
2023-01-18T22:42:01.772Z,97160.17
2023-01-18T22:44:28.927Z,97161.17
2023-01-18T22:46:56.587Z,97159.90
2023-01-18T22:49:23.922Z,97158.13
2023-01-18T22:51:50.970Z,97148.29
2023-01-18T22:54:21.959Z,97140.85
2023-01-18T22:56:49.267Z,97142.05
2023-01-18T22:59:16.424Z,97144.27
2023-01-18T23:01:43.637Z,97141.46
2023-01-18T23:04:10.808Z,97140.55
2023-01-18T23:06:47.427Z,97138.13
2023-01-18T23:09:16.948Z,97136.85
2023-01-18T23:11:45.168Z,97134.16
2023-01-18T23:14:30.975Z,97123.15
2023-01-18T23:17:17.267Z,97118.59
2023-01-18T23:19:44.331Z,97121.95
2023-01-18T23:22:11.393Z,97115.74
2023-01-18T23:24:39.055Z,97110.02
2023-01-18T23:27:11.273Z,97103.20
2023-01-18T23:29:38.896Z,97110.98
2023-01-18T23:32:06.779Z,97107.67
2023-01-18T23:34:33.888Z,97105.64
2023-01-18T23:37:00.963Z,97103.48
2023-01-18T23:39:47.564Z,97103.23
2023-01-18T23:42:33.262Z,97106.28
2023-01-18T23:45:19.221Z,97104.48
2023-01-18T23:48:05.302Z,97097.64
2023-01-18T23:50:51.018Z,97092.14
2023-01-18T23:53:36.431Z,97089.29
2023-01-18T23:56:03.527Z,97082.59
2023-01-18T23:58:30.543Z,97076.88
